Terminal Aerodrome Forecast
Issued by NWS

Home | Current Version | Previous Version | Text Only | Print | Product List | Glossary On
Versions: 1 2 3 4 5 6 7 8 9 10 11 12 13 14 15 16 17 18 19 20 21 22 23 24 25 26 27 28 29 30 31 32 33
000
FTUS43 KDMX 011136
TAFFOD
TAF
KFOD 011136Z 0112/0212 12010KT 5SM -RA BR BKN005 OVC020
     FM011500 15010KT 6SM BR VCSH BKN008 OVC025
     FM011900 15009KT P6SM SCT009 BKN022 OVC040
     FM020500 VRB03KT 2SM BR BKN007=

USA.gov is the U.S. government's official web portal to all federal, state and local government web resources and services.